الصفحة الرئيسية
METAR-TAF:

METAR-TAF

مطار :

Sedona, أريزونا, الولايات المتحدة

دائرة عرض: 34-51N, خط طول: 111-47W, ارتفاع: 1471 متر

مراقبة الطقس الحالي

تاريخ ووقت الإصدار 22 دقيقة قبل الساعة 10:35UTC
ريح 11 عقدة من الشمال الشرقي تتزايد حتى 18 عقدة
درجة الحرارة 19°درجة مئوية
الرطوبة 14%
ضغط 1025 hPa
الرؤية: 16.1 كم
سماء صافية

METAR: KSEZ 291035Z AUTO 04011G18KT 10SM CLR 19/M09 A3027 RMK AO2

زمن: 03:57 (10:57 UTC)

توقعات

تاريخ ووقت الإصدار 5ساعات و 37 دقيقة قبل الساعة 05:20UTC
التوقعات صالحة من29 الساعة 06 UTC إلى 30 الساعة 06 UTC
ريح 12 عقدة من الشمال الشرقي تتزايد حتى 20 عقدة
الرؤية: 10 كم
سماء صافية
من 29 الساعة 1500 UTC
ريح 5 عقدةمن اتجاهات متغيرة
الرؤية: 10 كم
سماء صافية

TAF: KSEZ 290520Z 2906/3006 05012G20KT P6SM SKC FM291500 VRB05KT P6SM SKC

أرصاد الطقس والتوقعات من أكثر من 4000 مطار (تقارير الطقس للمطار METAR والتنبؤ بالطقس بالمطارTAF).

المحطات المتاحة هي النقط الصفراء والحمراء على الخريطة.

حرك المؤشر فوق النقطة لمعرفة اسم المحطة.

ثم انقر لمعرفة أرصاد وتوقعات الطقس.

لتغيير الخارطة: اضغط على الأزرار الخضراء مع رمز الصليب الأسود للتكبير. على الزر الأخضر مع شرطة للتصغير، أو على الأسهم الخضراء للخرائط المجاورة.


METAR-TAF: